Time;durP1;ratioP1;P1;durP2;ratioP2;P2;SDS_P1;SDS_P2;PMS_P1;PMS_P2;Temp;Humidity;BMP_temperature;BMP_pressure;BME280_temperature;BME280_humidity;BME280_pressure;Samples;Min_cycle;Max_cycle;Signal;HPM_P1;HPM_P2
2023/09/27 00:01:24;;;;;;;8.93;8.07;;;14.30;99.90;;;;;;4992202;28;20452;-79
2023/09/27 00:03:51;;;;;;;9.50;8.70;;;14.30;99.90;;;;;;4992441;28;20472;-80
2023/09/27 00:06:18;;;;;;;9.07;8.33;;;14.30;99.90;;;;;;4991558;28;21047;-79
2023/09/27 00:08:44;;;;;;;8.67;7.83;;;14.30;99.90;;;;;;4992438;28;20441;-79
2023/09/27 00:11:11;;;;;;;9.53;8.70;;;14.20;99.90;;;;;;4992722;28;20440;-79
2023/09/27 00:13:40;;;;;;;8.33;7.63;;;14.00;99.90;;;;;;4992730;28;20926;-80
2023/09/27 00:16:06;;;;;;;8.47;7.87;;;14.00;99.90;;;;;;4992285;28;20472;-79
2023/09/27 00:18:33;;;;;;;8.60;8.00;;;14.00;99.90;;;;;;4992017;28;20798;-80
2023/09/27 00:21:00;;;;;;;8.23;7.53;;;13.90;99.90;;;;;;4991920;28;20850;-80
2023/09/27 00:23:26;;;;;;;8.80;8.00;;;13.90;99.90;;;;;;4993803;28;20448;-79
2023/09/27 00:25:53;;;;;;;8.50;7.70;;;13.90;99.90;;;;;;4995464;28;20472;-80
2023/09/27 00:28:20;;;;;;;8.20;7.50;;;14.10;99.90;;;;;;4995882;28;21069;-80
2023/09/27 00:30:50;;;;;;;8.00;7.30;;;14.00;99.90;;;;;;4996274;28;20448;-79
2023/09/27 00:33:17;;;;;;;8.03;7.23;;;13.90;99.90;;;;;;4994798;28;20531;-79
2023/09/27 00:35:48;;;;;;;7.97;7.27;;;13.90;99.90;;;;;;4994918;28;20463;-80
2023/09/27 00:38:15;;;;;;;7.60;6.83;;;13.90;99.90;;;;;;4995138;28;20508;-80
2023/09/27 00:40:45;;;;;;;8.03;7.33;;;13.90;99.90;;;;;;4995086;28;20450;-79
2023/09/27 00:43:25;;;;;;;10.40;7.37;;;13.90;99.90;;;;;;4995555;28;20480;-80
2023/09/27 00:45:54;;;;;;;10.33;6.97;;;13.80;99.90;;;;;;4994680;28;20965;-80
2023/09/27 00:48:21;;;;;;;7.80;7.20;;;13.80;99.90;;;;;;4994964;28;20444;-79
2023/09/27 00:50:48;;;;;;;8.07;7.37;;;13.80;99.90;;;;;;4995237;28;20468;-81
2023/09/27 00:53:15;;;;;;;7.83;7.23;;;13.70;99.90;;;;;;4994693;28;20445;-81
2023/09/27 00:55:42;;;;;;;8.30;7.60;;;13.70;99.90;;;;;;4994739;28;20475;-79
2023/09/27 00:58:09;;;;;;;8.40;7.77;;;13.70;99.90;;;;;;4994999;28;20480;-82
2023/09/27 01:00:37;;;;;;;8.60;7.60;;;13.60;99.90;;;;;;4994792;28;20532;-79
2023/09/27 01:03:06;;;;;;;7.40;6.90;;;13.60;99.90;;;;;;5004898;28;20439;-81
2023/09/27 01:05:32;;;;;;;7.70;7.10;;;13.80;99.90;;;;;;5014617;28;20470;-80
2023/09/27 01:07:59;;;;;;;7.73;7.03;;;13.60;99.90;;;;;;5014676;28;20539;-79
2023/09/27 01:10:26;;;;;;;8.70;7.90;;;13.60;99.90;;;;;;5015002;28;20937;-80
2023/09/27 01:12:53;;;;;;;8.20;7.60;;;13.50;99.90;;;;;;5014182;28;20554;-79
2023/09/27 01:15:20;;;;;;;8.80;8.10;;;13.50;99.90;;;;;;5014346;28;20463;-78
2023/09/27 01:17:54;;;;;;;8.20;7.60;;;13.50;99.90;;;;;;5013757;28;20479;-80
2023/09/27 01:20:22;;;;;;;7.13;6.53;;;13.40;99.90;;;;;;5014145;28;20526;-80
2023/09/27 01:22:56;;;;;;;11.20;9.93;;;13.40;99.90;;;;;;5014066;28;20474;-79
2023/09/27 01:25:25;;;;;;;9.27;8.37;;;13.40;99.90;;;;;;5013522;28;20557;-79
2023/09/27 01:27:54;;;;;;;8.43;7.73;;;13.30;99.90;;;;;;5013443;28;20450;-80
2023/09/27 01:30:21;;;;;;;8.50;7.70;;;13.30;99.90;;;;;;5014667;28;20451;-81
2023/09/27 01:32:47;;;;;;;7.80;7.20;;;13.70;99.90;;;;;;5023090;28;20830;-79
2023/09/27 01:35:17;;;;;;;8.97;8.37;;;13.30;99.90;;;;;;5034565;28;20454;-79
2023/09/27 01:37:44;;;;;;;8.07;7.47;;;13.30;99.90;;;;;;5033573;28;21322;-79
2023/09/27 01:40:17;;;;;;;8.43;7.80;;;13.30;99.90;;;;;;5034171;28;20582;-80
2023/09/27 01:42:44;;;;;;;8.10;7.50;;;13.60;99.90;;;;;;5033494;28;20431;-81
2023/09/27 01:45:12;;;;;;;7.53;7.03;;;13.30;99.90;;;;;;5033970;28;20847;-80
2023/09/27 01:47:39;;;;;;;8.03;7.33;;;13.40;99.90;;;;;;5033103;28;20960;-79
2023/09/27 01:50:08;;;;;;;8.20;7.60;;;13.30;99.90;;;;;;5033927;28;20446;-80
2023/09/27 01:52:35;;;;;;;8.63;7.87;;;13.20;99.90;;;;;;5032974;28;20840;-79
2023/09/27 01:55:01;;;;;;;7.90;7.30;;;13.20;99.90;;;;;;5033275;28;20556;-79
2023/09/27 01:57:29;;;;;;;8.40;7.80;;;13.20;99.90;;;;;;5032606;28;20478;-79
2023/09/27 01:59:56;;;;;;;8.40;7.60;;;13.20;99.90;;;;;;5033477;28;20512;-79
2023/09/27 02:02:23;;;;;;;13.03;11.93;;;13.10;99.90;;;;;;5033741;28;20438;-80
2023/09/27 02:04:50;;;;;;;9.53;8.77;;;13.10;99.90;;;;;;5032695;28;20478;-81
2023/09/27 02:07:16;;;;;;;10.47;7.93;;;13.00;99.90;;;;;;5032721;28;20541;-79
2023/09/27 02:09:43;;;;;;;8.50;7.90;;;13.00;99.90;;;;;;5032681;28;20473;-80
2023/09/27 02:12:10;;;;;;;8.80;8.00;;;13.00;99.90;;;;;;5033037;28;20454;-79
2023/09/27 02:14:38;;;;;;;8.17;7.57;;;13.00;99.90;;;;;;5033418;28;20442;-79
2023/09/27 02:17:04;;;;;;;9.07;8.27;;;13.00;99.90;;;;;;5032568;28;20449;-79
2023/09/27 02:19:31;;;;;;;8.87;8.00;;;13.00;99.90;;;;;;5032953;28;20792;-80
2023/09/27 02:21:58;;;;;;;8.80;8.10;;;13.00;99.90;;;;;;5032949;28;20446;-80
2023/09/27 02:24:25;;;;;;;8.87;8.13;;;12.90;99.90;;;;;;5032368;28;20438;-79
2023/09/27 02:26:53;;;;;;;8.80;8.10;;;12.90;99.90;;;;;;5032017;28;20504;-80
2023/09/27 02:29:20;;;;;;;8.93;8.23;;;12.90;99.90;;;;;;5033155;28;20445;-79
2023/09/27 02:31:48;;;;;;;9.07;8.30;;;12.80;99.90;;;;;;5032786;28;20454;-79
2023/09/27 02:34:16;;;;;;;9.90;9.00;;;12.90;99.90;;;;;;5032633;28;20577;-79
2023/09/27 02:36:43;;;;;;;8.50;7.80;;;12.90;99.90;;;;;;5033686;28;20497;-78
2023/09/27 02:39:11;;;;;;;9.27;8.57;;;13.20;99.90;;;;;;5050629;28;20549;-79
2023/09/27 02:41:37;;;;;;;9.70;8.80;;;12.90;99.90;;;;;;5050408;28;20446;-80
2023/09/27 02:44:05;;;;;;;8.47;7.77;;;12.80;99.90;;;;;;5039526;28;20469;-80
2023/09/27 02:46:32;;;;;;;8.70;7.97;;;12.70;99.90;;;;;;5031770;28;20477;-80
2023/09/27 02:49:00;;;;;;;8.70;8.00;;;12.70;99.90;;;;;;5033492;28;20471;-80
2023/09/27 02:51:26;;;;;;;8.50;7.90;;;12.70;99.90;;;;;;5033768;28;20451;-82
2023/09/27 02:53:53;;;;;;;8.50;7.80;;;12.70;99.90;;;;;;5033675;28;20442;-78
2023/09/27 02:56:20;;;;;;;9.20;8.40;;;12.70;99.90;;;;;;5033160;28;20462;-79
2023/09/27 02:58:47;;;;;;;8.50;7.90;;;12.70;99.90;;;;;;5033238;28;20478;-81
2023/09/27 03:01:13;;;;;;;9.33;8.57;;;12.60;99.90;;;;;;5033287;28;20443;-79
2023/09/27 03:03:40;;;;;;;9.70;8.90;;;12.60;99.90;;;;;;5032555;28;20451;-79
2023/09/27 03:06:14;;;;;;;8.83;8.23;;;12.50;99.90;;;;;;5032061;28;20477;-78
2023/09/27 03:08:43;;;;;;;9.33;8.63;;;12.50;99.90;;;;;;5032606;28;20430;-79
2023/09/27 03:11:09;;;;;;;8.93;8.13;;;12.50;99.90;;;;;;5032868;28;20925;-79
2023/09/27 03:13:37;;;;;;;10.43;8.93;;;12.50;99.90;;;;;;5033878;28;20442;-79
2023/09/27 03:16:04;;;;;;;10.47;9.57;;;12.50;99.90;;;;;;5034981;28;20828;-79
2023/09/27 03:18:32;;;;;;;10.53;9.63;;;12.50;99.90;;;;;;5035149;28;20485;-79
2023/09/27 03:20:59;;;;;;;9.77;9.00;;;12.40;99.90;;;;;;5034818;28;20501;-79
2023/09/27 03:23:28;;;;;;;9.77;8.97;;;12.40;99.90;;;;;;5045479;28;20990;-84
2023/09/27 03:25:55;;;;;;;9.63;8.77;;;12.40;99.90;;;;;;5041398;28;20478;-78
2023/09/27 03:28:22;;;;;;;10.27;9.27;;;12.40;99.90;;;;;;5031938;28;20446;-79
2023/09/27 03:30:49;;;;;;;10.60;9.60;;;12.40;99.90;;;;;;5031715;28;20457;-79
2023/09/27 03:33:15;;;;;;;10.33;9.47;;;12.40;99.90;;;;;;5031763;28;20822;-80
2023/09/27 03:35:42;;;;;;;10.63;9.60;;;12.40;99.90;;;;;;5032627;28;20474;-78
2023/09/27 03:38:09;;;;;;;10.27;9.37;;;12.40;99.90;;;;;;5031430;28;20909;-80
2023/09/27 03:40:40;;;;;;;9.53;8.73;;;12.40;99.90;;;;;;5032182;28;20449;-79
2023/09/27 03:43:07;;;;;;;9.90;9.07;;;12.40;99.90;;;;;;5031296;28;20422;-79
2023/09/27 03:45:35;;;;;;;14.23;12.83;;;12.40;99.90;;;;;;5028738;28;20466;-79
2023/09/27 03:48:02;;;;;;;13.90;11.00;;;12.30;99.90;;;;;;5011709;28;20439;-79
2023/09/27 03:50:29;;;;;;;10.70;9.80;;;12.40;99.90;;;;;;5011933;28;20443;-78
2023/09/27 03:52:57;;;;;;;9.63;8.83;;;12.30;99.90;;;;;;5012723;28;20492;-78
2023/09/27 03:55:24;;;;;;;9.97;9.13;;;12.20;99.90;;;;;;5011563;28;21029;-80
2023/09/27 03:57:52;;;;;;;9.87;9.00;;;12.30;99.90;;;;;;5014231;28;20439;-78
2023/09/27 04:00:19;;;;;;;10.27;9.47;;;12.30;99.90;;;;;;5015857;28;20450;-80
2023/09/27 04:02:47;;;;;;;9.30;8.50;;;12.20;99.90;;;;;;5016116;28;20439;-79
2023/09/27 04:05:16;;;;;;;9.20;8.40;;;12.20;99.90;;;;;;5015307;28;20455;-79
2023/09/27 04:07:43;;;;;;;9.87;9.07;;;12.20;99.90;;;;;;5015114;28;20435;-79
2023/09/27 04:10:11;;;;;;;9.57;8.67;;;12.10;99.90;;;;;;5015698;28;20439;-81
2023/09/27 04:12:37;;;;;;;10.70;9.70;;;12.10;99.90;;;;;;5015649;28;20493;-79
2023/09/27 04:15:09;;;;;;;10.37;9.37;;;12.10;99.90;;;;;;5015071;28;20458;-80
2023/09/27 04:17:37;;;;;;;10.37;8.93;;;12.10;99.90;;;;;;5015139;28;20416;-81
2023/09/27 04:20:14;;;;;;;10.50;9.43;;;12.00;99.90;;;;;;5015000;28;20479;-79
2023/09/27 04:22:42;;;;;;;11.00;9.37;;;12.00;99.90;;;;;;5015486;28;20463;-81
2023/09/27 04:25:09;;;;;;;9.67;8.90;;;12.00;99.90;;;;;;5014913;28;20491;-79
2023/09/27 04:27:36;;;;;;;10.07;9.20;;;11.90;99.90;;;;;;5015381;28;20423;-80
2023/09/27 04:30:10;;;;;;;9.97;9.13;;;11.90;99.90;;;;;;5015297;28;20941;-79
2023/09/27 04:32:38;;;;;;;11.40;9.33;;;12.00;99.90;;;;;;5016407;28;20427;-78
2023/09/27 04:35:05;;;;;;;10.90;9.97;;;11.90;99.90;;;;;;5015143;28;20455;-79
2023/09/27 04:37:32;;;;;;;9.67;8.77;;;11.90;99.90;;;;;;5015595;28;20444;-80
2023/09/27 04:39:58;;;;;;;9.00;8.13;;;11.90;99.90;;;;;;5015066;28;20996;-80
2023/09/27 04:42:25;;;;;;;10.57;8.57;;;11.90;99.90;;;;;;5014653;28;20471;-79
2023/09/27 04:44:52;;;;;;;9.83;8.77;;;12.00;99.90;;;;;;5022960;28;20463;-78
2023/09/27 04:47:20;;;;;;;9.90;9.10;;;11.90;99.90;;;;;;5027079;28;20443;-79
2023/09/27 04:49:47;;;;;;;16.17;14.60;;;12.10;99.90;;;;;;5022828;28;20442;-81
2023/09/27 04:52:14;;;;;;;10.47;9.63;;;11.80;99.90;;;;;;5015707;28;20895;-79
2023/09/27 04:54:41;;;;;;;10.20;9.33;;;11.80;99.90;;;;;;5015934;28;20489;-81
2023/09/27 04:57:08;;;;;;;10.43;8.93;;;11.80;99.90;;;;;;5015285;28;20459;-79
2023/09/27 04:59:36;;;;;;;13.27;9.70;;;11.80;99.90;;;;;;5014727;28;20558;-80
2023/09/27 05:02:03;;;;;;;11.13;10.13;;;11.80;99.90;;;;;;5015567;28;20463;-79
2023/09/27 05:04:31;;;;;;;10.67;9.37;;;11.80;99.90;;;;;;5014554;28;20435;-79
2023/09/27 05:06:57;;;;;;;10.10;8.97;;;11.80;99.90;;;;;;5015240;28;20812;-80
2023/09/27 05:09:24;;;;;;;11.53;10.37;;;11.80;99.90;;;;;;5013775;28;20508;-80
2023/09/27 05:11:51;;;;;;;11.47;10.47;;;11.70;99.90;;;;;;5014862;28;20444;-79
2023/09/27 05:14:17;;;;;;;10.93;9.60;;;11.60;99.90;;;;;;5014861;28;20439;-80
2023/09/27 05:16:44;;;;;;;11.17;10.10;;;11.60;99.90;;;;;;5014563;28;20443;-81
2023/09/27 05:19:11;;;;;;;10.80;9.90;;;11.60;99.90;;;;;;5014927;28;20484;-79
2023/09/27 05:21:39;;;;;;;10.67;9.67;;;11.60;99.90;;;;;;5015508;28;20447;-80
2023/09/27 05:24:07;;;;;;;11.07;10.10;;;11.60;99.90;;;;;;5016182;28;20474;-79
2023/09/27 05:26:33;;;;;;;10.40;9.50;;;11.60;99.90;;;;;;5014066;28;20554;-80
2023/09/27 05:29:00;;;;;;;11.10;9.97;;;11.60;99.90;;;;;;5014615;28;20447;-79
2023/09/27 05:31:28;;;;;;;14.37;10.17;;;11.60;99.90;;;;;;5013991;28;20486;-81
2023/09/27 05:33:54;;;;;;;11.30;10.17;;;11.70;99.90;;;;;;5016607;28;20866;-80
2023/09/27 05:36:21;;;;;;;11.00;9.90;;;11.70;99.90;;;;;;5014489;28;20459;-79
2023/09/27 05:38:50;;;;;;;10.80;9.80;;;11.70;99.90;;;;;;5014042;28;20491;-83
2023/09/27 05:41:17;;;;;;;12.40;10.23;;;11.70;99.90;;;;;;5014018;28;20454;-81
2023/09/27 05:43:44;;;;;;;13.73;11.03;;;11.70;99.90;;;;;;5014824;28;20454;-81
2023/09/27 05:46:10;;;;;;;14.83;10.30;;;11.80;99.90;;;;;;5013635;28;20470;-79
2023/09/27 05:48:37;;;;;;;13.13;11.00;;;11.90;99.90;;;;;;5013502;28;20447;-78
2023/09/27 05:51:04;;;;;;;11.00;9.90;;;11.90;99.90;;;;;;5013110;28;21173;-79
2023/09/27 05:53:30;;;;;;;12.70;11.43;;;11.90;99.90;;;;;;5019432;28;20443;-79
2023/09/27 05:56:02;;;;;;;12.00;10.90;;;11.90;99.90;;;;;;5016096;28;20865;-79
2023/09/27 05:58:33;;;;;;;12.60;11.30;;;12.00;99.90;;;;;;5013161;28;20528;-79
2023/09/27 06:01:00;;;;;;;13.17;11.77;;;12.20;99.90;;;;;;5014145;28;20894;-80
2023/09/27 06:03:27;;;;;;;12.30;11.10;;;12.20;99.90;;;;;;5015430;28;20451;-81
2023/09/27 06:05:53;;;;;;;12.27;10.97;;;12.30;99.90;;;;;;5015751;28;20463;-78
2023/09/27 06:08:20;;;;;;;12.40;11.20;;;12.40;99.90;;;;;;5015928;28;21139;-79
2023/09/27 06:10:48;;;;;;;17.43;11.17;;;12.40;99.90;;;;;;5014166;28;20937;-80
2023/09/27 06:13:15;;;;;;;11.73;10.77;;;12.50;99.90;;;;;;5014377;28;20454;-79
2023/09/27 06:15:42;;;;;;;11.10;10.20;;;12.50;99.90;;;;;;5013870;28;20451;-79
2023/09/27 06:18:12;;;;;;;11.27;10.37;;;12.50;99.90;;;;;;5013451;28;20929;-79
2023/09/27 06:20:40;;;;;;;11.80;10.70;;;12.50;99.90;;;;;;5013646;28;20570;-79
2023/09/27 06:23:06;;;;;;;11.67;10.63;;;12.50;99.90;;;;;;5014246;28;20452;-80
2023/09/27 06:25:35;;;;;;;12.07;10.83;;;12.60;99.90;;;;;;5013606;28;20476;-79
2023/09/27 06:28:02;;;;;;;12.90;11.60;;;12.60;99.90;;;;;;5013636;28;20498;-78
2023/09/27 06:30:30;;;;;;;10.60;9.80;;;12.60;99.90;;;;;;5013301;28;20819;-79
2023/09/27 06:32:57;;;;;;;13.90;11.50;;;12.70;99.90;;;;;;5013706;28;20486;-82
2023/09/27 06:35:24;;;;;;;12.93;10.53;;;12.70;99.90;;;;;;5013367;28;20467;-80
2023/09/27 06:37:51;;;;;;;12.10;10.90;;;12.70;99.90;;;;;;5019468;28;20932;-81
2023/09/27 06:40:19;;;;;;;15.07;11.10;;;12.80;99.90;;;;;;5016621;28;20479;-81
2023/09/27 06:42:46;;;;;;;12.37;11.13;;;12.80;99.90;;;;;;4999151;28;20480;-80
2023/09/27 06:45:14;;;;;;;12.17;11.07;;;12.80;99.90;;;;;;5006161;28;20467;-79
2023/09/27 06:47:44;;;;;;;12.43;11.33;;;12.90;99.90;;;;;;5012837;28;20447;-79
2023/09/27 06:50:12;;;;;;;12.13;11.03;;;13.00;99.90;;;;;;5013575;28;20431;-80
2023/09/27 06:52:39;;;;;;;13.23;12.13;;;13.10;99.90;;;;;;5013428;28;20839;-79
2023/09/27 06:55:10;;;;;;;12.57;11.40;;;13.10;99.90;;;;;;5012822;28;20940;-79
2023/09/27 06:57:38;;;;;;;13.00;11.80;;;13.20;99.90;;;;;;5013157;28;20465;-78
2023/09/27 07:00:10;;;;;;;13.07;11.27;;;13.30;99.90;;;;;;5013486;28;20523;-78
2023/09/27 07:02:36;;;;;;;13.20;11.83;;;13.40;99.90;;;;;;5013716;28;20431;-79
2023/09/27 07:05:06;;;;;;;15.27;13.13;;;13.50;99.90;;;;;;5014705;28;20464;-80
2023/09/27 07:07:33;;;;;;;13.67;12.13;;;13.50;99.90;;;;;;5014669;28;20878;-82
2023/09/27 07:09:59;;;;;;;12.57;11.40;;;13.60;99.90;;;;;;5025063;28;20439;-79
2023/09/27 07:12:26;;;;;;;12.80;11.70;;;13.70;99.90;;;;;;5031942;28;20825;-79
2023/09/27 07:14:53;;;;;;;14.93;12.50;;;13.80;99.90;;;;;;5032587;28;20705;-79
2023/09/27 07:17:21;;;;;;;12.10;11.10;;;14.00;99.90;;;;;;5032181;28;20438;-81
2023/09/27 07:19:51;;;;;;;11.50;10.40;;;14.20;99.90;;;;;;5032576;28;20493;-79
2023/09/27 07:22:19;;;;;;;15.83;11.17;;;14.30;99.90;;;;;;5032552;28;20448;-79
2023/09/27 07:24:46;;;;;;;11.73;10.63;;;14.40;99.90;;;;;;5032745;28;20454;-79
2023/09/27 07:27:13;;;;;;;11.90;10.90;;;14.50;99.90;;;;;;5032589;28;20956;-79
2023/09/27 07:29:40;;;;;;;13.17;10.97;;;14.60;99.90;;;;;;5033179;28;20439;-79
2023/09/27 07:32:06;;;;;;;11.13;9.90;;;14.70;99.90;;;;;;5034440;28;20454;-79
2023/09/27 07:34:33;;;;;;;10.47;9.47;;;14.80;99.90;;;;;;5036909;28;20449;-80
2023/09/27 07:37:00;;;;;;;10.90;9.87;;;15.00;99.90;;;;;;5037248;28;20449;-81
2023/09/27 07:39:28;;;;;;;11.17;10.03;;;15.10;99.90;;;;;;5037587;28;20484;-78
2023/09/27 07:41:55;;;;;;;10.90;9.80;;;15.30;99.90;;;;;;5049168;28;20457;-79
2023/09/27 07:44:22;;;;;;;10.60;9.60;;;15.40;99.90;;;;;;5049690;28;20449;-78
2023/09/27 07:46:48;;;;;;;9.70;8.90;;;15.60;99.90;;;;;;5022045;28;20975;-80
2023/09/27 07:49:16;;;;;;;10.77;9.77;;;15.70;99.90;;;;;;5021346;28;20439;-78
2023/09/27 07:51:43;;;;;;;9.30;8.50;;;15.80;99.90;;;;;;5018355;28;20439;-79
2023/09/27 07:54:10;;;;;;;11.00;9.27;;;16.00;99.90;;;;;;5035591;28;20450;-81
2023/09/27 07:56:40;;;;;;;10.13;8.87;;;16.20;99.90;;;;;;5031369;28;20562;-77
2023/09/27 07:59:07;;;;;;;9.67;8.80;;;16.60;99.90;;;;;;5016552;28;20493;-80
2023/09/27 08:01:34;;;;;;;10.40;8.50;;;16.80;99.90;;;;;;5016898;28;20450;-79
2023/09/27 08:04:06;;;;;;;10.20;8.60;;;17.00;99.90;;;;;;4998530;28;20436;-79
2023/09/27 08:06:33;;;;;;;9.17;8.27;;;17.10;99.90;;;;;;4996630;28;20468;-78
2023/09/27 08:09:00;;;;;;;9.03;8.30;;;17.20;99.90;;;;;;4996990;28;20448;-79
2023/09/27 08:11:26;;;;;;;9.77;8.87;;;17.40;99.90;;;;;;5010748;28;20450;-78
2023/09/27 08:13:55;;;;;;;9.77;8.07;;;17.50;99.90;;;;;;5015935;28;20447;-80
2023/09/27 08:16:21;;;;;;;10.60;8.00;;;17.60;99.90;;;;;;5005684;28;20456;-78
2023/09/27 08:18:48;;;;;;;8.40;7.70;;;17.80;99.90;;;;;;4999520;28;20945;-79
2023/09/27 08:21:15;;;;;;;8.47;7.50;;;17.90;99.90;;;;;;5016179;28;20513;-81
2023/09/27 08:23:42;;;;;;;8.73;7.60;;;18.10;99.90;;;;;;5016047;28;20815;-83
2023/09/27 08:26:12;;;;;;;8.50;7.50;;;18.30;99.90;;;;;;5015320;28;21043;-78
2023/09/27 08:28:39;;;;;;;8.40;7.43;;;18.80;99.90;;;;;;5016445;28;20467;-78
2023/09/27 08:31:07;;;;;;;7.90;7.20;;;19.10;99.90;;;;;;5017685;28;20477;-78
2023/09/27 08:33:34;;;;;;;10.33;7.40;;;19.10;99.90;;;;;;5024321;28;20479;-79
2023/09/27 08:36:01;;;;;;;7.30;6.60;;;19.30;99.90;;;;;;5033601;28;20458;-79
2023/09/27 08:38:28;;;;;;;8.07;6.70;;;19.30;99.90;;;;;;5019544;28;20801;-78
2023/09/27 08:40:55;;;;;;;7.70;6.60;;;19.40;99.90;;;;;;5016585;28;20988;-79
2023/09/27 08:43:23;;;;;;;7.33;6.60;;;19.50;99.90;;;;;;5015309;28;20448;-78
2023/09/27 08:45:52;;;;;;;7.93;7.23;;;20.10;99.90;;;;;;5026962;28;20473;-83
2023/09/27 08:48:22;;;;;;;8.03;7.03;;;20.10;99.90;;;;;;5019538;28;20442;-79
2023/09/27 08:50:50;;;;;;;6.27;5.77;;;20.10;99.90;;;;;;5023480;28;20432;-79
2023/09/27 08:53:16;;;;;;;6.40;5.77;;;20.40;99.90;;;;;;5010269;28;20443;-80
2023/09/27 08:55:46;;;;;;;7.10;6.50;;;20.70;99.90;;;;;;5022924;28;20476;-79
2023/09/27 08:58:15;;;;;;;7.60;6.23;;;20.90;99.90;;;;;;5029701;28;20438;-80
2023/09/27 09:00:43;;;;;;;7.17;6.57;;;21.10;99.90;;;;;;5029451;28;20483;-79
2023/09/27 09:03:10;;;;;;;8.30;7.07;;;21.30;99.90;;;;;;5020691;28;20455;-78
2023/09/27 09:05:40;;;;;;;6.20;5.70;;;21.10;99.90;;;;;;5031510;28;20463;-78
2023/09/27 09:08:09;;;;;;;9.13;5.50;;;21.70;99.90;;;;;;5038166;28;20435;-80
2023/09/27 09:10:37;;;;;;;9.47;6.20;;;21.90;99.90;;;;;;5032813;28;20438;-82
2023/09/27 09:13:05;;;;;;;9.33;5.77;;;22.30;99.90;;;;;;5018604;28;20872;-82
2023/09/27 09:15:35;;;;;;;6.13;5.60;;;22.40;99.90;;;;;;5018580;28;20463;-80
2023/09/27 09:18:06;;;;;;;7.07;6.20;;;22.70;99.90;;;;;;5034027;28;20435;-79
2023/09/27 09:20:48;;;;;;;5.30;4.90;;;22.90;99.90;;;;;;5033120;28;20489;-81
2023/09/27 09:23:27;;;;;;;5.33;4.93;;;23.20;99.90;;;;;;5021252;28;20492;-80
2023/09/27 09:25:56;;;;;;;7.23;4.70;;;23.20;99.90;;;;;;5026232;28;20478;-80
2023/09/27 09:28:24;;;;;;;5.87;5.37;;;23.30;99.90;;;;;;5020450;28;20451;-83
2023/09/27 09:30:51;;;;;;;5.83;5.17;;;23.60;99.90;;;;;;5019336;28;20447;-81
2023/09/27 09:33:19;;;;;;;5.70;5.10;;;23.70;99.90;;;;;;5010452;28;20439;-80
2023/09/27 09:35:46;;;;;;;5.90;4.80;;;23.50;99.90;;;;;;5009723;28;20472;-79
2023/09/27 09:38:22;;;;;;;6.07;5.50;;;23.60;99.90;;;;;;5023082;28;20432;-83
2023/09/27 09:40:54;;;;;;;6.00;5.40;;;24.10;99.90;;;;;;5027883;28;20470;-81
2023/09/27 09:43:32;;;;;;;8.00;5.33;;;24.40;99.90;;;;;;5027179;28;20455;-79
2023/09/27 09:46:00;;;;;;;6.60;6.00;;;24.30;99.90;;;;;;5022669;28;20482;-81
2023/09/27 09:48:27;;;;;;;6.60;6.00;;;24.10;99.90;;;;;;5038287;28;20453;-81
2023/09/27 09:51:01;;;;;;;8.23;6.43;;;24.10;99.90;;;;;;5027608;28;20443;-81
2023/09/27 09:53:29;;;;;;;5.60;5.10;;;23.90;99.90;;;;;;5025938;28;20469;-82
2023/09/27 09:56:00;;;;;;;5.13;4.60;;;24.00;99.90;;;;;;5021573;28;20498;-81
2023/09/27 09:58:33;;;;;;;5.17;4.40;;;24.10;99.90;;;;;;5017460;28;20450;-82
2023/09/27 10:01:03;;;;;;;4.53;3.70;;;24.80;99.90;;;;;;5017339;28;20498;-82
2023/09/27 10:03:32;;;;;;;6.40;3.90;;;25.50;99.90;;;;;;5017102;28;20856;-82
2023/09/27 10:06:01;;;;;;;4.63;4.00;;;25.50;99.90;;;;;;5020717;28;20533;-82
2023/09/27 10:08:33;;;;;;;4.60;4.20;;;25.90;99.90;;;;;;5017749;28;20475;-83
2023/09/27 10:11:03;;;;;;;4.50;4.10;;;25.70;99.90;;;;;;5021314;28;20436;-82
2023/09/27 10:13:33;;;;;;;4.23;4.00;;;25.90;99.90;;;;;;5010144;28;20433;-83
2023/09/27 10:16:00;;;;;;;4.67;4.27;;;26.10;99.90;;;;;;5017322;28;20550;-84
2023/09/27 10:18:33;;;;;;;4.63;4.23;;;26.60;99.90;;;;;;5023347;28;20423;-82
2023/09/27 10:21:08;;;;;;;4.90;4.47;;;26.70;99.90;;;;;;5039662;28;20490;-81
2023/09/27 10:23:36;;;;;;;5.30;4.80;;;26.40;99.90;;;;;;5035077;28;20463;-82
2023/09/27 10:26:32;;;;;;;5.23;4.50;;;26.40;99.90;;;;;;5030451;28;20475;-82
2023/09/27 10:29:13;;;;;;;6.43;5.83;;;26.50;99.90;;;;;;5032299;28;20451;-83
2023/09/27 10:32:22;;;;;;;4.90;4.50;;;26.20;99.90;;;;;;5034292;28;20448;-80
2023/09/27 10:34:53;;;;;;;4.47;3.73;;;26.50;99.90;;;;;;5012207;28;20470;-83
2023/09/27 10:37:58;;;;;;;3.53;3.23;;;27.20;99.90;;;;;;5026799;28;20455;-82
2023/09/27 10:40:25;;;;;;;4.53;4.10;;;27.50;99.90;;;;;;5037620;28;20478;-82
2023/09/27 10:42:55;;;;;;;4.17;3.80;;;27.20;99.90;;;;;;5020167;28;20828;-83
2023/09/27 10:45:22;;;;;;;4.90;3.60;;;27.50;99.90;;;;;;5020842;28;20834;-82
2023/09/27 10:47:49;;;;;;;4.10;3.57;;;27.90;99.90;;;;;;5024146;28;20458;-83
2023/09/27 10:50:27;;;;;;;4.07;3.67;;;27.90;99.90;;;;;;5015892;28;20809;-82
2023/09/27 10:52:55;;;;;;;3.77;3.30;;;28.00;99.90;;;;;;5031817;28;20532;-83
2023/09/27 10:55:21;;;;;;;4.30;3.73;;;28.20;99.90;;;;;;5024244;28;21030;-82
2023/09/27 10:57:48;;;;;;;3.70;3.40;;;28.30;99.90;;;;;;5036121;28;20446;-82
2023/09/27 11:00:18;;;;;;;4.53;3.80;;;28.40;99.90;;;;;;5020548;28;20486;-81
2023/09/27 11:02:45;;;;;;;4.60;3.50;;;28.30;99.90;;;;;;5014180;28;20455;-81
2023/09/27 11:05:12;;;;;;;6.03;3.57;;;28.10;99.90;;;;;;5020638;28;20482;-82
2023/09/27 11:07:45;;;;;;;4.10;3.37;;;27.60;99.90;;;;;;5015764;28;20502;-84
2023/09/27 11:10:18;;;;;;;3.90;3.30;;;27.40;99.90;;;;;;5010100;28;21003;-81
2023/09/27 11:12:45;;;;;;;4.23;3.67;;;27.60;99.90;;;;;;5015583;28;20505;-82
2023/09/27 11:15:12;;;;;;;2.97;2.77;;;28.10;99.90;;;;;;5016185;28;20498;-84
2023/09/27 11:17:40;;;;;;;4.33;3.70;;;28.40;99.90;;;;;;5015716;28;20436;-81
2023/09/27 11:20:11;;;;;;;3.20;3.00;;;29.00;99.90;;;;;;5004862;28;20445;-80
2023/09/27 11:22:38;;;;;;;3.90;3.60;;;29.20;99.90;;;;;;5026733;28;20963;-83
2023/09/27 11:25:25;;;;;;;2.60;2.50;;;28.20;99.90;;;;;;5014997;28;21022;-83
2023/09/27 11:27:52;;;;;;;2.87;2.67;;;28.60;99.90;;;;;;5014601;28;20427;-83
2023/09/27 11:30:24;;;;;;;3.10;2.90;;;28.20;99.90;;;;;;5015677;28;20435;-83
2023/09/27 11:32:53;;;;;;;6.37;3.07;;;28.70;99.90;;;;;;5016419;28;20438;-83
2023/09/27 11:35:20;;;;;;;3.10;2.43;;;29.10;99.90;;;;;;5019561;28;20467;-81
2023/09/27 11:37:47;;;;;;;3.03;2.20;;;29.40;99.90;;;;;;5016637;28;20435;-83
2023/09/27 11:40:14;;;;;;;2.80;2.23;;;29.50;99.20;;;;;;5016421;28;20519;-82
2023/09/27 11:42:43;;;;;;;2.63;2.20;;;29.40;98.50;;;;;;5024365;28;20450;-83
2023/09/27 11:45:12;;;;;;;2.10;2.00;;;;;;;;;;5003860;28;21191;-82
2023/09/27 11:47:45;;;;;;;2.07;1.90;;;30.30;96.20;;;;;;5011278;28;20474;-81
2023/09/27 11:50:14;;;;;;;2.43;2.30;;;30.00;94.00;;;;;;5007628;28;20815;-81
2023/09/27 11:52:42;;;;;;;2.20;2.10;;;30.00;93.80;;;;;;5020014;28;20443;-83
2023/09/27 11:55:10;;;;;;;2.23;2.00;;;30.70;92.90;;;;;;5007387;28;20464;-82
2023/09/27 11:57:37;;;;;;;2.10;1.90;;;30.50;91.80;;;;;;5015665;28;20447;-84
2023/09/27 12:00:08;;;;;;;2.43;2.23;;;30.70;92.00;;;;;;5020225;28;20443;-82
2023/09/27 12:02:34;;;;;;;2.13;1.93;;;31.00;90.80;;;;;;5015916;28;20436;-82
2023/09/27 12:05:01;;;;;;;2.50;2.30;;;31.10;90.30;;;;;;5021381;28;20477;-83
2023/09/27 12:07:29;;;;;;;2.13;2.03;;;31.50;89.70;;;;;;5005443;28;20442;-82
2023/09/27 12:09:56;;;;;;;2.20;2.00;;;31.60;88.80;;;;;;5015672;28;20895;-82
2023/09/27 12:12:23;;;;;;;1.90;1.80;;;31.50;87.70;;;;;;5019358;28;20443;-83
2023/09/27 12:14:50;;;;;;;2.57;2.43;;;31.10;86.50;;;;;;5020529;28;20469;-81
2023/09/27 12:17:17;;;;;;;2.30;2.20;;;30.50;88.10;;;;;;5015093;28;20474;-84
2023/09/27 12:19:45;;;;;;;2.90;2.67;;;30.90;87.40;;;;;;5017734;28;20450;-84
2023/09/27 12:22:11;;;;;;;2.93;2.67;;;31.10;87.50;;;;;;5020321;28;20881;-84
2023/09/27 12:24:40;;;;;;;2.63;2.43;;;30.70;87.80;;;;;;5010556;28;20445;-84
2023/09/27 12:27:07;;;;;;;2.60;2.50;;;31.20;88.50;;;;;;5022297;28;20447;-85
2023/09/27 12:29:35;;;;;;;2.87;2.70;;;30.50;86.90;;;;;;5026675;28;20467;-83
2023/09/27 12:32:02;;;;;;;2.23;2.13;;;30.40;87.60;;;;;;5017655;28;20450;-83
2023/09/27 12:34:29;;;;;;;2.30;2.03;;;31.10;87.70;;;;;;5017067;28;20447;-82
2023/09/27 12:36:56;;;;;;;5.03;2.30;;;31.60;86.30;;;;;;5017725;28;20509;-84
2023/09/27 12:39:22;;;;;;;3.10;2.47;;;32.00;85.60;;;;;;5024179;28;20451;-83
2023/09/27 12:41:51;;;;;;;2.37;2.27;;;31.90;85.10;;;;;;5002425;28;20498;-83
2023/09/27 12:44:18;;;;;;;2.43;2.23;;;32.20;84.10;;;;;;5025679;28;20451;-81
2023/09/27 12:46:45;;;;;;;2.40;2.30;;;31.90;83.70;;;;;;5017122;28;20463;-81
2023/09/27 12:49:12;;;;;;;2.40;2.10;;;30.90;85.20;;;;;;5017960;28;20444;-83